createdAt,value
2023-03-08T00:00:53.080Z,3.50
2023-03-08T00:03:20.901Z,3.70
2023-03-08T00:05:48.832Z,4.00
2023-03-08T00:08:17.602Z,4.60
2023-03-08T00:10:45.552Z,3.60
2023-03-08T00:13:13.375Z,3.70
2023-03-08T00:15:41.351Z,4.40
2023-03-08T00:18:09.228Z,3.50
2023-03-08T00:20:37.080Z,4.10
2023-03-08T00:23:04.885Z,3.70
2023-03-08T00:25:32.759Z,3.80
2023-03-08T00:28:00.620Z,4.00
2023-03-08T00:30:28.989Z,4.10
2023-03-08T00:32:56.782Z,3.40
2023-03-08T00:35:24.763Z,4.10
2023-03-08T00:37:52.662Z,3.80
2023-03-08T00:40:20.699Z,3.40
2023-03-08T00:42:48.574Z,3.60
2023-03-08T00:45:16.403Z,4.20
2023-03-08T00:47:44.230Z,3.70
2023-03-08T00:50:12.702Z,3.60
2023-03-08T00:52:40.676Z,3.70
2023-03-08T00:55:08.674Z,3.60
2023-03-08T00:57:36.536Z,4.00
2023-03-08T01:00:08.375Z,4.00
2023-03-08T01:02:36.404Z,3.80
2023-03-08T01:05:04.361Z,3.50
2023-03-08T01:07:32.173Z,3.80
2023-03-08T01:10:00.146Z,3.90
2023-03-08T01:12:27.955Z,3.50
2023-03-08T01:14:55.820Z,3.90
2023-03-08T01:17:23.640Z,3.50
2023-03-08T01:19:51.434Z,4.20
2023-03-08T01:22:19.225Z,3.50
2023-03-08T01:24:47.788Z,3.50
2023-03-08T01:27:17.038Z,3.60
2023-03-08T01:29:44.962Z,3.60
2023-03-08T01:32:12.895Z,3.90
2023-03-08T01:34:40.810Z,3.70
2023-03-08T01:37:08.573Z,3.50
2023-03-08T01:39:36.409Z,3.10
2023-03-08T01:42:07.393Z,3.60
2023-03-08T01:44:51.865Z,3.90
2023-03-08T01:47:24.372Z,3.50
2023-03-08T01:49:53.883Z,3.40
2023-03-08T01:52:34.044Z,3.80
2023-03-08T01:55:06.110Z,3.70
2023-03-08T01:57:35.707Z,4.10
2023-03-08T02:00:05.878Z,4.50
2023-03-08T02:02:36.640Z,3.30
2023-03-08T02:05:04.741Z,3.90
2023-03-08T02:07:32.587Z,3.40
2023-03-08T02:10:00.459Z,4.30
2023-03-08T02:12:28.692Z,4.10
2023-03-08T02:14:57.571Z,4.10
2023-03-08T02:17:25.905Z,4.10
2023-03-08T02:20:20.039Z,4.30
2023-03-08T02:22:50.130Z,4.30
2023-03-08T02:25:19.264Z,4.50
2023-03-08T02:27:47.416Z,4.70
2023-03-08T02:30:16.259Z,4.70
2023-03-08T02:32:44.223Z,4.40
2023-03-08T02:35:12.115Z,4.20
2023-03-08T02:37:39.826Z,4.90
2023-03-08T02:40:08.268Z,4.20
2023-03-08T02:42:36.128Z,4.10
2023-03-08T02:45:04.224Z,4.50
2023-03-08T02:47:32.570Z,4.50
2023-03-08T02:50:00.348Z,4.20
2023-03-08T02:52:28.677Z,4.80
2023-03-08T02:54:56.475Z,4.40
2023-03-08T02:57:24.376Z,4.50
2023-03-08T02:59:52.182Z,4.80
2023-03-08T03:02:19.991Z,5.40
2023-03-08T03:04:47.875Z,4.70
2023-03-08T03:07:15.720Z,4.50
2023-03-08T03:09:43.541Z,4.60
2023-03-08T03:12:11.371Z,4.80
2023-03-08T03:14:39.329Z,4.80
2023-03-08T03:17:07.145Z,5.70
2023-03-08T03:19:34.888Z,4.30
2023-03-08T03:22:02.616Z,5.10
2023-03-08T03:24:30.391Z,4.80
2023-03-08T03:26:58.140Z,5.10
2023-03-08T03:29:25.910Z,4.90
2023-03-08T03:31:53.681Z,4.60
2023-03-08T03:34:21.571Z,4.80
2023-03-08T03:36:49.717Z,31.20
2023-03-08T03:39:17.668Z,6.40
2023-03-08T03:41:45.632Z,5.10
2023-03-08T03:44:13.569Z,6.20
2023-03-08T03:46:41.358Z,5.70
2023-03-08T03:49:09.139Z,9.60
2023-03-08T03:51:44.298Z,20.50
2023-03-08T03:54:12.285Z,19.80
2023-03-08T03:56:40.151Z,15.50
2023-03-08T03:59:07.984Z,23.40
2023-03-08T04:01:35.830Z,21.70
2023-03-08T04:04:03.789Z,22.20
2023-03-08T04:06:32.927Z,12.10
2023-03-08T04:09:02.710Z,10.30
2023-03-08T04:14:23.535Z,5.00
2023-03-08T04:16:51.587Z,5.40
2023-03-08T04:19:19.422Z,5.10
2023-03-08T04:21:47.453Z,4.80
2023-03-08T04:24:15.306Z,5.60
2023-03-08T04:26:43.109Z,6.60
2023-03-08T04:29:10.912Z,9.30
2023-03-08T04:31:39.192Z,8.70
2023-03-08T04:34:07.575Z,10.20
2023-03-08T04:36:36.702Z,13.50
2023-03-08T04:39:04.500Z,13.80
2023-03-08T04:41:32.577Z,11.50
2023-03-08T04:44:00.469Z,13.90
2023-03-08T04:46:28.452Z,10.10
2023-03-08T04:48:56.720Z,9.40
2023-03-08T04:51:25.711Z,6.80
2023-03-08T04:53:53.813Z,5.50
2023-03-08T04:56:22.118Z,7.70
2023-03-08T04:58:50.411Z,7.50
2023-03-08T05:01:23.153Z,7.60
2023-03-08T05:03:52.636Z,10.90
2023-03-08T05:06:22.311Z,12.80
2023-03-08T05:08:50.359Z,6.60
2023-03-08T05:11:20.404Z,8.30
2023-03-08T05:13:48.316Z,9.50
2023-03-08T05:16:16.645Z,8.70
2023-03-08T05:18:45.038Z,8.60
2023-03-08T05:21:15.334Z,6.60
2023-03-08T05:23:43.082Z,6.00
2023-03-08T05:26:12.232Z,6.30
2023-03-08T05:28:41.982Z,5.90
2023-03-08T05:31:12.959Z,5.50
2023-03-08T05:33:43.550Z,8.90
2023-03-08T05:36:11.750Z,10.60
2023-03-08T05:38:40.137Z,9.90
2023-03-08T05:41:11.773Z,10.70
2023-03-08T05:43:39.695Z,7.90
2023-03-08T05:46:12.023Z,6.50
2023-03-08T05:48:40.440Z,5.50
2023-03-08T05:51:12.845Z,6.30
2023-03-08T05:53:41.209Z,5.40
2023-03-08T05:56:10.415Z,5.30
2023-03-08T05:58:42.998Z,5.90
2023-03-08T06:01:13.182Z,6.50
2023-03-08T06:03:41.336Z,7.20
2023-03-08T06:06:09.362Z,5.40
2023-03-08T06:08:37.775Z,5.10
2023-03-08T06:11:06.174Z,5.40
2023-03-08T06:13:34.695Z,6.70
2023-03-08T06:16:03.115Z,5.20
2023-03-08T06:18:31.390Z,5.30
2023-03-08T06:20:59.192Z,5.20
2023-03-08T06:23:28.668Z,5.70
2023-03-08T06:25:56.814Z,5.20
2023-03-08T06:28:25.321Z,5.10
2023-03-08T06:30:53.527Z,5.10
2023-03-08T06:33:26.520Z,4.90
2023-03-08T06:36:00.600Z,5.30
2023-03-08T06:38:30.147Z,5.60
2023-03-08T06:40:58.799Z,5.30
2023-03-08T06:43:26.901Z,5.50
2023-03-08T06:45:54.945Z,5.60
2023-03-08T06:48:23.121Z,5.80
2023-03-08T06:50:51.502Z,5.80
2023-03-08T06:53:19.517Z,5.70
2023-03-08T06:55:47.455Z,4.80
2023-03-08T06:58:15.259Z,6.00
2023-03-08T07:00:43.075Z,4.80
2023-03-08T07:03:13.748Z,5.30
2023-03-08T07:05:43.078Z,5.00
2023-03-08T07:08:11.290Z,5.80
2023-03-08T07:10:39.257Z,5.10
2023-03-08T07:13:07.117Z,5.50
2023-03-08T07:15:35.109Z,5.50
2023-03-08T07:18:03.180Z,5.10
2023-03-08T07:20:30.896Z,4.50
2023-03-08T07:23:01.879Z,6.80
2023-03-08T07:25:29.735Z,5.40
2023-03-08T07:27:59.059Z,5.60
2023-03-08T07:30:27.336Z,5.10
2023-03-08T07:32:55.534Z,5.10
2023-03-08T07:35:23.538Z,5.50
2023-03-08T07:37:51.405Z,5.20
2023-03-08T07:40:19.315Z,5.00
2023-03-08T07:42:47.158Z,4.90
2023-03-08T07:45:15.308Z,4.90
2023-03-08T07:47:43.502Z,6.20
2023-03-08T07:50:11.893Z,4.90
2023-03-08T07:52:39.978Z,5.30
2023-03-08T07:55:08.189Z,5.40
2023-03-08T07:57:36.195Z,4.30
2023-03-08T08:00:07.953Z,4.50
2023-03-08T08:02:36.827Z,5.40
2023-03-08T08:05:05.416Z,4.70
2023-03-08T08:07:33.209Z,5.30
2023-03-08T08:10:01.006Z,5.10
2023-03-08T08:12:28.881Z,4.70
2023-03-08T08:14:56.744Z,5.10
2023-03-08T08:17:24.760Z,6.20
2023-03-08T08:19:52.810Z,5.40
2023-03-08T08:22:23.368Z,5.40
2023-03-08T08:24:51.183Z,5.50
2023-03-08T08:27:20.283Z,5.50
2023-03-08T08:29:50.916Z,5.30
2023-03-08T08:32:18.888Z,4.40
2023-03-08T08:34:46.943Z,4.90
2023-03-08T08:37:15.103Z,5.20
2023-03-08T08:39:43.241Z,5.20
2023-03-08T08:42:11.553Z,5.20
2023-03-08T08:44:39.410Z,4.90
2023-03-08T08:47:07.216Z,4.90
2023-03-08T08:49:35.096Z,5.00
2023-03-08T08:52:02.933Z,4.60
2023-03-08T08:54:31.304Z,4.60
2023-03-08T08:56:59.242Z,5.20
2023-03-08T08:59:27.226Z,4.70
2023-03-08T09:01:55.121Z,4.80
2023-03-08T09:04:23.178Z,4.50
2023-03-08T09:06:51.564Z,4.70
2023-03-08T09:09:19.636Z,4.30
2023-03-08T09:11:54.755Z,4.10
2023-03-08T09:14:23.764Z,4.70
2023-03-08T09:16:52.858Z,4.60
2023-03-08T09:19:21.089Z,4.80
2023-03-08T09:21:49.063Z,4.40
2023-03-08T09:24:17.242Z,5.30
2023-03-08T09:26:45.012Z,4.40
2023-03-08T09:29:13.122Z,4.80
2023-03-08T09:31:42.686Z,4.10
2023-03-08T09:34:11.674Z,4.20
2023-03-08T09:36:40.005Z,3.90
2023-03-08T09:39:09.067Z,3.70
2023-03-08T09:41:43.048Z,4.00
2023-03-08T09:44:29.757Z,3.80
2023-03-08T09:47:01.169Z,3.10
2023-03-08T09:49:30.715Z,3.40
2023-03-08T09:52:11.446Z,3.30
2023-03-08T09:54:39.442Z,3.70
2023-03-08T09:57:14.039Z,3.60
2023-03-08T09:59:45.597Z,3.90
2023-03-08T10:02:16.502Z,4.60
2023-03-08T10:05:09.885Z,4.40
2023-03-08T10:07:42.865Z,4.30
2023-03-08T10:10:29.157Z,4.50
2023-03-08T10:13:15.453Z,3.60
2023-03-08T10:15:46.229Z,3.60
2023-03-08T10:18:17.696Z,3.10
2023-03-08T10:20:46.596Z,2.80
2023-03-08T10:23:16.255Z,3.40
2023-03-08T10:25:44.529Z,2.60
2023-03-08T10:28:17.074Z,2.50
2023-03-08T10:30:49.575Z,2.80
2023-03-08T10:33:19.365Z,2.60
2023-03-08T10:35:50.227Z,3.00
2023-03-08T10:38:18.155Z,3.10
2023-03-08T10:40:46.170Z,3.10
2023-03-08T10:43:20.459Z,2.80
2023-03-08T10:45:57.389Z,4.00
2023-03-08T10:48:25.260Z,4.20
2023-03-08T10:51:04.254Z,3.90
2023-03-08T10:53:32.992Z,3.30
2023-03-08T10:56:01.689Z,3.90
2023-03-08T10:58:31.913Z,3.70
2023-03-08T11:01:01.444Z,3.70
2023-03-08T11:03:29.367Z,3.80
2023-03-08T11:06:05.197Z,4.60
2023-03-08T11:08:40.222Z,6.00
2023-03-08T11:11:12.197Z,6.50
2023-03-08T11:13:47.698Z,6.00
2023-03-08T11:16:21.917Z,5.70
2023-03-08T11:19:03.422Z,6.60
2023-03-08T11:21:40.842Z,6.90
2023-03-08T11:24:20.893Z,6.10
2023-03-08T11:27:24.756Z,6.80
2023-03-08T11:29:55.544Z,7.90
2023-03-08T11:32:30.696Z,7.40
2023-03-08T11:34:58.771Z,7.00
2023-03-08T11:37:26.935Z,6.70
2023-03-08T11:40:00.532Z,6.90
2023-03-08T11:42:36.187Z,7.60
2023-03-08T11:45:19.601Z,7.40
2023-03-08T11:48:06.540Z,7.00
2023-03-08T11:50:42.345Z,7.70
2023-03-08T11:53:16.148Z,9.10
2023-03-08T11:55:44.028Z,7.90
2023-03-08T11:58:24.037Z,8.40
2023-03-08T12:00:53.709Z,9.90
2023-03-08T12:03:24.608Z,8.90
2023-03-08T12:05:55.790Z,9.10
2023-03-08T12:08:23.912Z,8.70
2023-03-08T12:11:15.212Z,9.00
2023-03-08T12:14:03.447Z,8.60
2023-03-08T12:16:34.600Z,7.90
2023-03-08T12:19:02.740Z,8.00
2023-03-08T12:21:30.702Z,7.60
2023-03-08T12:24:17.569Z,6.40
2023-03-08T12:27:06.086Z,6.70
2023-03-08T12:29:38.072Z,5.60
2023-03-08T12:32:06.945Z,4.90
2023-03-08T12:34:37.997Z,5.60
2023-03-08T12:37:19.268Z,5.50
2023-03-08T12:39:55.877Z,6.30
2023-03-08T12:42:31.749Z,6.00
2023-03-08T12:45:06.735Z,5.90
2023-03-08T12:47:34.629Z,5.90
2023-03-08T12:50:10.755Z,5.60
2023-03-08T12:52:38.697Z,6.20
2023-03-08T12:55:17.240Z,6.00
2023-03-08T12:57:50.085Z,6.30
2023-03-08T13:00:21.045Z,6.80
2023-03-08T13:02:58.962Z,7.00
2023-03-08T13:05:28.496Z,7.10
2023-03-08T13:07:56.406Z,6.70
2023-03-08T13:10:44.471Z,6.60
2023-03-08T13:13:26.739Z,7.00
2023-03-08T13:16:28.652Z,7.30
2023-03-08T13:19:02.354Z,8.20
2023-03-08T13:21:35.629Z,6.80
2023-03-08T13:24:22.004Z,8.40
2023-03-08T13:27:08.450Z,7.70
2023-03-08T13:29:36.589Z,8.40
2023-03-08T13:32:12.093Z,7.10
2023-03-08T13:34:41.805Z,7.40
2023-03-08T13:37:23.715Z,8.00
2023-03-08T13:39:55.285Z,6.80
2023-03-08T13:42:24.998Z,7.60
2023-03-08T13:44:53.741Z,8.00
2023-03-08T13:47:23.846Z,7.70
2023-03-08T13:49:52.880Z,7.70
2023-03-08T13:52:23.001Z,7.90
2023-03-08T13:54:53.282Z,8.30
2023-03-08T13:57:23.067Z,8.30
2023-03-08T13:59:52.848Z,7.60
2023-03-08T14:02:22.635Z,7.90
2023-03-08T14:04:50.918Z,8.10
2023-03-08T14:07:27.244Z,8.60
2023-03-08T14:09:55.838Z,8.00
2023-03-08T14:12:31.169Z,7.80
2023-03-08T14:15:01.243Z,8.10
2023-03-08T14:17:30.673Z,7.80
2023-03-08T14:20:01.346Z,8.00
2023-03-08T14:22:39.902Z,8.20
2023-03-08T14:25:20.775Z,7.30
2023-03-08T14:27:48.728Z,8.10
2023-03-08T14:30:18.162Z,7.60
2023-03-08T14:33:06.246Z,7.60
2023-03-08T14:35:38.658Z,8.20
2023-03-08T14:38:14.008Z,8.70
2023-03-08T14:40:47.046Z,8.70
2023-03-08T14:43:17.314Z,8.30
2023-03-08T14:45:54.726Z,8.50
2023-03-08T14:48:28.955Z,8.40
2023-03-08T14:51:04.675Z,9.30
2023-03-08T14:53:37.296Z,8.10
2023-03-08T14:56:06.802Z,9.20
2023-03-08T14:58:37.724Z,9.50
2023-03-08T15:01:05.752Z,9.70
2023-03-08T15:03:33.870Z,10.60
2023-03-08T15:06:05.157Z,9.80
2023-03-08T15:08:33.272Z,10.50
2023-03-08T15:11:01.140Z,9.70
2023-03-08T15:13:29.259Z,9.70
2023-03-08T15:15:57.136Z,13.60
2023-03-08T15:18:25.035Z,10.00
2023-03-08T15:20:53.056Z,9.80
2023-03-08T15:23:25.041Z,9.70
2023-03-08T15:25:53.008Z,9.80
2023-03-08T15:28:21.794Z,10.10
2023-03-08T15:30:52.863Z,9.80
2023-03-08T15:33:21.254Z,10.10
2023-03-08T15:35:49.620Z,10.00
2023-03-08T15:38:18.615Z,9.20
2023-03-08T15:40:46.566Z,10.40
2023-03-08T15:43:14.489Z,11.50
2023-03-08T15:45:42.507Z,13.30
2023-03-08T15:48:17.676Z,13.50
2023-03-08T15:50:46.052Z,16.50
2023-03-08T15:53:20.634Z,18.80
2023-03-08T15:55:57.417Z,17.10
2023-03-08T15:58:25.407Z,14.80
2023-03-08T16:00:53.475Z,17.70
2023-03-08T16:03:26.119Z,17.60
2023-03-08T16:05:55.247Z,21.20
2023-03-08T16:08:25.940Z,22.50
2023-03-08T16:10:54.218Z,19.40
2023-03-08T16:13:24.296Z,16.00
2023-03-08T16:15:52.461Z,16.50
2023-03-08T16:18:20.830Z,18.00
2023-03-08T16:20:51.733Z,18.50
2023-03-08T16:23:20.110Z,18.60
2023-03-08T16:26:14.832Z,25.90
2023-03-08T16:28:44.639Z,28.50
2023-03-08T16:31:13.202Z,26.80
2023-03-08T16:33:41.145Z,25.10
2023-03-08T16:36:09.011Z,29.40
2023-03-08T16:38:36.888Z,29.00
2023-03-08T16:41:13.842Z,36.50
2023-03-08T16:43:48.095Z,32.60
2023-03-08T16:46:17.752Z,33.10
2023-03-08T16:48:45.916Z,27.20
2023-03-08T16:51:14.550Z,29.40
2023-03-08T16:53:42.633Z,29.20
2023-03-08T16:56:16.903Z,30.00
2023-03-08T16:58:44.871Z,30.70
2023-03-08T17:01:13.605Z,33.70
2023-03-08T17:03:41.783Z,35.20
2023-03-08T17:06:10.883Z,37.60
2023-03-08T17:08:39.093Z,34.10
2023-03-08T17:11:15.500Z,33.80
2023-03-08T17:13:52.453Z,33.70
2023-03-08T17:16:21.498Z,27.80
2023-03-08T17:18:52.088Z,24.60
2023-03-08T17:21:22.771Z,29.20
2023-03-08T17:23:53.308Z,35.70
2023-03-08T17:26:23.362Z,38.40
2023-03-08T17:28:52.138Z,36.80
2023-03-08T17:31:22.087Z,41.80
2023-03-08T17:33:50.109Z,41.60
2023-03-08T17:36:19.649Z,39.10
2023-03-08T17:38:53.753Z,37.10
2023-03-08T17:41:22.845Z,37.80
2023-03-08T17:43:51.110Z,38.50
2023-03-08T17:46:20.487Z,46.30
2023-03-08T17:48:48.913Z,45.70
2023-03-08T17:51:18.509Z,44.50
2023-03-08T17:53:46.680Z,46.80
2023-03-08T17:56:16.216Z,39.70
2023-03-08T17:58:44.355Z,37.90
2023-03-08T18:01:17.055Z,37.30
2023-03-08T18:03:45.734Z,35.40
2023-03-08T18:06:22.413Z,33.00
2023-03-08T18:08:50.738Z,34.40
2023-03-08T18:11:18.868Z,34.30
2023-03-08T18:13:46.764Z,37.70
2023-03-08T18:16:15.102Z,40.20
2023-03-08T18:18:43.056Z,42.00
2023-03-08T18:21:14.035Z,49.90
2023-03-08T18:23:43.316Z,49.80
2023-03-08T18:26:12.105Z,48.20
2023-03-08T18:28:40.683Z,42.10
2023-03-08T18:31:09.610Z,42.30
2023-03-08T18:33:39.885Z,41.10
2023-03-08T18:36:07.914Z,34.50
2023-03-08T18:38:35.858Z,32.50
2023-03-08T18:41:13.101Z,27.90
2023-03-08T18:43:41.153Z,26.60
2023-03-08T18:46:12.932Z,27.90
2023-03-08T18:48:41.429Z,29.60
2023-03-08T18:51:09.748Z,30.90
2023-03-08T18:53:38.005Z,30.50
2023-03-08T18:56:06.031Z,29.10
2023-03-08T18:58:34.161Z,36.40
2023-03-08T19:01:03.072Z,37.60
2023-03-08T19:03:31.250Z,44.10
2023-03-08T19:06:01.938Z,40.80
2023-03-08T19:08:29.948Z,40.10
2023-03-08T19:10:58.336Z,34.80
2023-03-08T19:13:26.215Z,28.00
2023-03-08T19:15:54.054Z,34.90
2023-03-08T19:18:23.660Z,31.70
2023-03-08T19:20:51.634Z,34.30
2023-03-08T19:23:19.544Z,38.10
2023-03-08T19:26:06.040Z,37.10
2023-03-08T19:28:33.797Z,34.80
2023-03-08T19:31:01.751Z,37.90
2023-03-08T19:33:31.374Z,36.50
2023-03-08T19:35:59.605Z,35.20
2023-03-08T19:38:27.539Z,33.50
2023-03-08T19:40:56.030Z,32.60
2023-03-08T19:43:24.161Z,32.20
2023-03-08T19:45:52.779Z,29.90
2023-03-08T19:48:20.660Z,30.20
2023-03-08T19:52:19.608Z,32.90
2023-03-08T19:54:48.849Z,27.20
2023-03-08T19:57:17.125Z,28.40
2023-03-08T19:59:45.049Z,27.60
2023-03-08T20:02:13.482Z,25.90
2023-03-08T20:04:42.240Z,28.20
2023-03-08T20:07:10.111Z,31.80
2023-03-08T20:09:37.957Z,31.70
2023-03-08T20:12:05.776Z,30.80
2023-03-08T20:14:33.882Z,32.80
2023-03-08T20:17:04.847Z,32.30
2023-03-08T20:19:34.489Z,30.90
2023-03-08T20:22:04.827Z,36.20
2023-03-08T20:24:32.856Z,35.10
2023-03-08T20:27:00.864Z,31.40
2023-03-08T20:29:28.765Z,33.70
2023-03-08T20:31:58.448Z,33.70
2023-03-08T20:34:27.497Z,30.30
2023-03-08T20:36:55.640Z,31.40
2023-03-08T20:39:23.789Z,31.30
2023-03-08T20:41:51.843Z,29.60
2023-03-08T20:44:19.815Z,31.80
2023-03-08T20:46:48.737Z,29.80
2023-03-08T20:49:17.012Z,33.60
2023-03-08T20:51:44.965Z,29.60
2023-03-08T20:54:12.936Z,29.20
2023-03-08T20:56:41.460Z,30.20
2023-03-08T20:59:09.878Z,30.50
2023-03-08T21:01:38.073Z,28.70
2023-03-08T21:04:06.606Z,30.50
2023-03-08T21:06:34.559Z,29.30
2023-03-08T21:09:02.544Z,25.70
2023-03-08T21:11:39.167Z,27.60
2023-03-08T21:14:08.160Z,26.10
2023-03-08T21:16:36.397Z,25.00
2023-03-08T21:19:05.109Z,26.20
2023-03-08T21:21:35.613Z,25.30
2023-03-08T21:24:07.616Z,24.60
2023-03-08T21:26:36.225Z,24.90
2023-03-08T21:29:05.841Z,24.20
2023-03-08T21:31:35.485Z,25.30
2023-03-08T21:34:07.530Z,26.30
2023-03-08T21:36:36.984Z,29.10
2023-03-08T21:39:06.404Z,28.60
2023-03-08T21:41:35.664Z,29.80
2023-03-08T21:44:06.007Z,31.50
2023-03-08T21:46:35.889Z,28.40
2023-03-08T21:49:04.551Z,28.30
2023-03-08T21:51:32.906Z,29.90
2023-03-08T21:54:01.278Z,28.90
2023-03-08T21:56:29.239Z,28.40
2023-03-08T21:58:57.466Z,27.10
2023-03-08T22:01:29.949Z,27.50
2023-03-08T22:03:58.562Z,28.20
2023-03-08T22:06:27.062Z,28.40
2023-03-08T22:08:55.191Z,27.60
2023-03-08T22:11:23.870Z,24.90
2023-03-08T22:13:53.431Z,26.30
2023-03-08T22:16:21.996Z,25.70
2023-03-08T22:18:52.115Z,27.10
2023-03-08T22:21:20.216Z,27.50
2023-03-08T22:23:57.570Z,27.90
2023-03-08T22:26:27.381Z,26.70
2023-03-08T22:28:56.236Z,25.00
2023-03-08T22:31:25.569Z,25.30
2023-03-08T22:33:53.783Z,24.00
2023-03-08T22:36:21.934Z,25.30
2023-03-08T22:38:50.121Z,25.90
2023-03-08T22:41:20.634Z,24.10
2023-03-08T22:43:49.714Z,22.70
2023-03-08T22:46:22.431Z,22.90
2023-03-08T22:48:50.961Z,23.30
2023-03-08T22:51:20.600Z,25.50
2023-03-08T22:53:48.792Z,22.70
2023-03-08T22:56:21.592Z,22.50
2023-03-08T22:58:50.147Z,23.30
2023-03-08T23:01:19.533Z,21.80
2023-03-08T23:03:49.628Z,23.70
2023-03-08T23:06:18.845Z,24.60
2023-03-08T23:08:47.330Z,25.40
2023-03-08T23:11:15.585Z,22.40
2023-03-08T23:13:43.751Z,22.10
2023-03-08T23:16:13.795Z,22.90
2023-03-08T23:18:42.918Z,22.60
2023-03-08T23:21:12.573Z,22.50
2023-03-08T23:23:41.496Z,21.30
2023-03-08T23:26:11.298Z,21.90
2023-03-08T23:28:39.615Z,21.80
2023-03-08T23:31:10.866Z,22.50
2023-03-08T23:33:39.290Z,22.70
2023-03-08T23:36:08.123Z,22.80
2023-03-08T23:38:36.472Z,23.70
2023-03-08T23:41:08.403Z,24.50
2023-03-08T23:43:37.324Z,26.50
2023-03-08T23:46:13.395Z,25.10
2023-03-08T23:48:42.341Z,24.60
2023-03-08T23:51:11.857Z,23.00
2023-03-08T23:53:40.031Z,23.60
2023-03-08T23:56:16.682Z,22.90
2023-03-08T23:58:44.688Z,22.80
